sensor_id;sensor_type;location;lat;lon;timestamp;P1;durP1;ratioP1;P2;durP2;ratioP2
42832;SDS011;28479;51.478;5.692;2022-08-19T00:00:24;15.85;;;9.80;;
42832;SDS011;28479;51.478;5.692;2022-08-19T00:02:50;15.93;;;10.85;;
42832;SDS011;28479;51.478;5.692;2022-08-19T00:05:16;15.27;;;9.55;;
42832;SDS011;28479;51.478;5.692;2022-08-19T00:07:44;17.70;;;10.95;;
42832;SDS011;28479;51.478;5.692;2022-08-19T00:10:10;16.45;;;10.82;;
42832;SDS011;28479;51.478;5.692;2022-08-19T00:12:38;20.63;;;11.27;;
42832;SDS011;28479;51.478;5.692;2022-08-19T00:15:04;14.57;;;9.20;;
42832;SDS011;28479;51.478;5.692;2022-08-19T00:17:31;15.15;;;9.57;;
42832;SDS011;28479;51.478;5.692;2022-08-19T00:19:57;15.10;;;9.80;;
42832;SDS011;28479;51.478;5.692;2022-08-19T00:22:22;14.50;;;9.98;;
42832;SDS011;28479;51.478;5.692;2022-08-19T00:24:48;15.80;;;10.23;;
42832;SDS011;28479;51.478;5.692;2022-08-19T00:27:13;18.20;;;11.07;;
42832;SDS011;28479;51.478;5.692;2022-08-19T00:29:39;15.52;;;10.40;;
42832;SDS011;28479;51.478;5.692;2022-08-19T00:32:05;13.95;;;9.98;;
42832;SDS011;28479;51.478;5.692;2022-08-19T00:34:31;21.95;;;11.00;;
42832;SDS011;28479;51.478;5.692;2022-08-19T00:36:57;17.27;;;10.40;;
42832;SDS011;28479;51.478;5.692;2022-08-19T00:39:23;18.90;;;11.50;;
42832;SDS011;28479;51.478;5.692;2022-08-19T00:41:49;16.05;;;10.05;;
42832;SDS011;28479;51.478;5.692;2022-08-19T00:44:17;17.95;;;11.00;;
42832;SDS011;28479;51.478;5.692;2022-08-19T00:46:46;19.80;;;10.82;;
42832;SDS011;28479;51.478;5.692;2022-08-19T00:49:14;18.25;;;10.68;;
42832;SDS011;28479;51.478;5.692;2022-08-19T00:51:45;18.33;;;11.13;;
42832;SDS011;28479;51.478;5.692;2022-08-19T00:54:13;17.98;;;11.38;;
42832;SDS011;28479;51.478;5.692;2022-08-19T00:56:39;21.95;;;11.30;;
42832;SDS011;28479;51.478;5.692;2022-08-19T00:59:06;18.48;;;11.65;;
42832;SDS011;28479;51.478;5.692;2022-08-19T01:01:34;18.95;;;11.02;;
42832;SDS011;28479;51.478;5.692;2022-08-19T01:04:04;16.70;;;10.45;;
42832;SDS011;28479;51.478;5.692;2022-08-19T01:06:31;21.27;;;11.32;;
42832;SDS011;28479;51.478;5.692;2022-08-19T01:08:57;18.63;;;11.20;;
42832;SDS011;28479;51.478;5.692;2022-08-19T01:11:24;19.70;;;12.07;;
42832;SDS011;28479;51.478;5.692;2022-08-19T01:13:52;16.58;;;10.68;;
42832;SDS011;28479;51.478;5.692;2022-08-19T01:16:19;21.00;;;11.85;;
42832;SDS011;28479;51.478;5.692;2022-08-19T01:18:48;16.45;;;9.90;;
42832;SDS011;28479;51.478;5.692;2022-08-19T01:21:18;21.25;;;12.38;;
42832;SDS011;28479;51.478;5.692;2022-08-19T01:23:53;20.48;;;12.13;;
42832;SDS011;28479;51.478;5.692;2022-08-19T01:26:21;25.52;;;13.25;;
42832;SDS011;28479;51.478;5.692;2022-08-19T01:28:51;24.27;;;13.00;;
42832;SDS011;28479;51.478;5.692;2022-08-19T01:31:20;22.73;;;12.93;;
42832;SDS011;28479;51.478;5.692;2022-08-19T01:33:49;21.40;;;12.27;;
42832;SDS011;28479;51.478;5.692;2022-08-19T01:36:49;21.13;;;13.48;;
42832;SDS011;28479;51.478;5.692;2022-08-19T01:39:13;22.33;;;12.55;;
42832;SDS011;28479;51.478;5.692;2022-08-19T01:41:45;24.33;;;12.43;;
42832;SDS011;28479;51.478;5.692;2022-08-19T01:44:11;25.88;;;11.95;;
42832;SDS011;28479;51.478;5.692;2022-08-19T01:46:37;24.17;;;13.38;;
42832;SDS011;28479;51.478;5.692;2022-08-19T01:49:03;22.55;;;12.50;;
42832;SDS011;28479;51.478;5.692;2022-08-19T01:51:30;20.92;;;11.63;;
42832;SDS011;28479;51.478;5.692;2022-08-19T01:53:57;22.08;;;12.43;;
42832;SDS011;28479;51.478;5.692;2022-08-19T01:56:23;25.23;;;13.02;;
42832;SDS011;28479;51.478;5.692;2022-08-19T01:58:49;23.58;;;12.20;;
42832;SDS011;28479;51.478;5.692;2022-08-19T02:01:18;19.98;;;11.90;;
42832;SDS011;28479;51.478;5.692;2022-08-19T02:03:44;22.67;;;12.95;;
42832;SDS011;28479;51.478;5.692;2022-08-19T02:06:11;24.95;;;14.30;;
42832;SDS011;28479;51.478;5.692;2022-08-19T02:08:37;23.92;;;13.40;;
42832;SDS011;28479;51.478;5.692;2022-08-19T02:11:04;19.95;;;12.60;;
42832;SDS011;28479;51.478;5.692;2022-08-19T02:13:31;21.90;;;12.52;;
42832;SDS011;28479;51.478;5.692;2022-08-19T02:15:58;22.17;;;13.00;;
42832;SDS011;28479;51.478;5.692;2022-08-19T02:18:24;22.02;;;11.93;;
42832;SDS011;28479;51.478;5.692;2022-08-19T02:20:51;21.13;;;11.45;;
42832;SDS011;28479;51.478;5.692;2022-08-19T02:23:17;20.48;;;11.70;;
42832;SDS011;28479;51.478;5.692;2022-08-19T02:25:43;27.05;;;12.10;;
42832;SDS011;28479;51.478;5.692;2022-08-19T02:28:11;23.30;;;13.15;;
42832;SDS011;28479;51.478;5.692;2022-08-19T02:30:37;25.80;;;14.00;;
42832;SDS011;28479;51.478;5.692;2022-08-19T02:33:03;20.30;;;11.38;;
42832;SDS011;28479;51.478;5.692;2022-08-19T02:35:29;19.88;;;11.77;;
42832;SDS011;28479;51.478;5.692;2022-08-19T02:37:55;23.88;;;12.18;;
42832;SDS011;28479;51.478;5.692;2022-08-19T02:40:39;24.35;;;11.77;;
42832;SDS011;28479;51.478;5.692;2022-08-19T02:43:06;19.30;;;11.13;;
42832;SDS011;28479;51.478;5.692;2022-08-19T02:45:33;24.10;;;13.20;;
42832;SDS011;28479;51.478;5.692;2022-08-19T02:48:01;29.48;;;11.50;;
42832;SDS011;28479;51.478;5.692;2022-08-19T02:50:27;22.13;;;12.45;;
42832;SDS011;28479;51.478;5.692;2022-08-19T02:52:53;25.25;;;12.23;;
42832;SDS011;28479;51.478;5.692;2022-08-19T02:55:18;22.15;;;11.48;;
42832;SDS011;28479;51.478;5.692;2022-08-19T02:57:45;24.70;;;11.45;;
42832;SDS011;28479;51.478;5.692;2022-08-19T03:00:11;20.25;;;11.80;;
42832;SDS011;28479;51.478;5.692;2022-08-19T03:02:38;22.38;;;11.93;;
42832;SDS011;28479;51.478;5.692;2022-08-19T03:05:06;24.70;;;13.35;;
42832;SDS011;28479;51.478;5.692;2022-08-19T03:07:34;24.52;;;12.85;;
42832;SDS011;28479;51.478;5.692;2022-08-19T03:10:01;22.23;;;12.32;;
42832;SDS011;28479;51.478;5.692;2022-08-19T03:12:28;26.42;;;13.52;;
42832;SDS011;28479;51.478;5.692;2022-08-19T03:14:53;28.13;;;13.52;;
42832;SDS011;28479;51.478;5.692;2022-08-19T03:17:19;24.73;;;13.15;;
42832;SDS011;28479;51.478;5.692;2022-08-19T03:19:51;26.08;;;13.70;;
42832;SDS011;28479;51.478;5.692;2022-08-19T03:22:16;25.00;;;13.57;;
42832;SDS011;28479;51.478;5.692;2022-08-19T03:24:42;26.20;;;14.52;;
42832;SDS011;28479;51.478;5.692;2022-08-19T03:27:08;27.25;;;12.85;;
42832;SDS011;28479;51.478;5.692;2022-08-19T03:29:34;20.30;;;12.27;;
42832;SDS011;28479;51.478;5.692;2022-08-19T03:32:03;22.67;;;12.95;;
42832;SDS011;28479;51.478;5.692;2022-08-19T03:34:31;28.63;;;12.48;;
42832;SDS011;28479;51.478;5.692;2022-08-19T03:36:58;26.33;;;13.65;;
42832;SDS011;28479;51.478;5.692;2022-08-19T03:39:28;25.75;;;12.82;;
42832;SDS011;28479;51.478;5.692;2022-08-19T03:41:54;24.73;;;12.93;;
42832;SDS011;28479;51.478;5.692;2022-08-19T03:44:24;24.35;;;13.27;;
42832;SDS011;28479;51.478;5.692;2022-08-19T03:46:54;30.70;;;15.70;;
42832;SDS011;28479;51.478;5.692;2022-08-19T03:49:23;25.73;;;13.75;;
42832;SDS011;28479;51.478;5.692;2022-08-19T03:51:53;24.13;;;12.35;;
42832;SDS011;28479;51.478;5.692;2022-08-19T03:54:21;21.80;;;12.55;;
42832;SDS011;28479;51.478;5.692;2022-08-19T03:56:49;27.33;;;12.63;;
42832;SDS011;28479;51.478;5.692;2022-08-19T03:59:19;22.17;;;12.65;;
42832;SDS011;28479;51.478;5.692;2022-08-19T04:01:51;21.20;;;11.38;;
42832;SDS011;28479;51.478;5.692;2022-08-19T04:04:21;26.08;;;14.30;;
42832;SDS011;28479;51.478;5.692;2022-08-19T04:06:48;27.70;;;14.30;;
42832;SDS011;28479;51.478;5.692;2022-08-19T04:09:14;34.38;;;14.50;;
42832;SDS011;28479;51.478;5.692;2022-08-19T04:11:41;19.48;;;11.63;;
42832;SDS011;28479;51.478;5.692;2022-08-19T04:14:22;23.80;;;12.98;;
42832;SDS011;28479;51.478;5.692;2022-08-19T04:16:51;27.02;;;13.38;;
42832;SDS011;28479;51.478;5.692;2022-08-19T04:19:18;24.25;;;12.82;;
42832;SDS011;28479;51.478;5.692;2022-08-19T04:21:45;26.80;;;13.45;;
42832;SDS011;28479;51.478;5.692;2022-08-19T04:24:12;24.02;;;13.43;;
42832;SDS011;28479;51.478;5.692;2022-08-19T04:26:39;23.70;;;12.93;;
42832;SDS011;28479;51.478;5.692;2022-08-19T04:29:06;22.67;;;13.07;;
42832;SDS011;28479;51.478;5.692;2022-08-19T04:31:34;27.30;;;14.70;;
42832;SDS011;28479;51.478;5.692;2022-08-19T04:34:01;26.83;;;13.43;;
42832;SDS011;28479;51.478;5.692;2022-08-19T04:36:33;23.85;;;13.05;;
42832;SDS011;28479;51.478;5.692;2022-08-19T04:39:03;26.92;;;13.50;;
42832;SDS011;28479;51.478;5.692;2022-08-19T04:41:31;26.58;;;14.13;;
42832;SDS011;28479;51.478;5.692;2022-08-19T04:44:15;24.20;;;13.20;;
42832;SDS011;28479;51.478;5.692;2022-08-19T04:46:43;27.60;;;13.75;;
42832;SDS011;28479;51.478;5.692;2022-08-19T04:49:13;25.55;;;14.70;;
42832;SDS011;28479;51.478;5.692;2022-08-19T04:51:41;25.80;;;14.05;;
42832;SDS011;28479;51.478;5.692;2022-08-19T04:54:08;30.83;;;14.95;;
42832;SDS011;28479;51.478;5.692;2022-08-19T04:56:34;24.95;;;13.77;;
42832;SDS011;28479;51.478;5.692;2022-08-19T04:59:00;26.55;;;14.10;;
42832;SDS011;28479;51.478;5.692;2022-08-19T05:01:29;27.52;;;14.77;;
42832;SDS011;28479;51.478;5.692;2022-08-19T05:03:57;25.17;;;14.75;;
42832;SDS011;28479;51.478;5.692;2022-08-19T05:08:57;31.02;;;17.08;;
42832;SDS011;28479;51.478;5.692;2022-08-19T05:11:25;30.80;;;16.48;;
42832;SDS011;28479;51.478;5.692;2022-08-19T05:13:53;29.63;;;15.68;;
42832;SDS011;28479;51.478;5.692;2022-08-19T05:16:20;36.42;;;17.45;;
42832;SDS011;28479;51.478;5.692;2022-08-19T05:18:46;33.05;;;17.23;;
42832;SDS011;28479;51.478;5.692;2022-08-19T05:21:30;38.15;;;18.10;;
42832;SDS011;28479;51.478;5.692;2022-08-19T05:24:16;33.13;;;18.30;;
42832;SDS011;28479;51.478;5.692;2022-08-19T05:26:44;35.58;;;17.48;;
42832;SDS011;28479;51.478;5.692;2022-08-19T05:29:12;35.80;;;19.10;;
42832;SDS011;28479;51.478;5.692;2022-08-19T05:31:39;37.45;;;17.73;;
42832;SDS011;28479;51.478;5.692;2022-08-19T05:34:05;37.00;;;19.67;;
42832;SDS011;28479;51.478;5.692;2022-08-19T05:36:49;36.30;;;20.67;;
42832;SDS011;28479;51.478;5.692;2022-08-19T05:39:18;34.17;;;19.63;;
42832;SDS011;28479;51.478;5.692;2022-08-19T05:41:46;39.38;;;20.17;;
42832;SDS011;28479;51.478;5.692;2022-08-19T05:44:13;41.67;;;21.25;;
42832;SDS011;28479;51.478;5.692;2022-08-19T05:46:39;50.47;;;21.17;;
42832;SDS011;28479;51.478;5.692;2022-08-19T05:49:07;40.80;;;21.10;;
42832;SDS011;28479;51.478;5.692;2022-08-19T05:51:35;39.55;;;21.45;;
42832;SDS011;28479;51.478;5.692;2022-08-19T05:54:02;42.10;;;20.88;;
42832;SDS011;28479;51.478;5.692;2022-08-19T05:56:29;38.38;;;20.15;;
42832;SDS011;28479;51.478;5.692;2022-08-19T05:58:56;45.53;;;20.15;;
42832;SDS011;28479;51.478;5.692;2022-08-19T06:01:23;40.78;;;21.08;;
42832;SDS011;28479;51.478;5.692;2022-08-19T06:03:50;43.35;;;22.02;;
42832;SDS011;28479;51.478;5.692;2022-08-19T06:06:17;45.38;;;22.65;;
42832;SDS011;28479;51.478;5.692;2022-08-19T06:08:43;51.03;;;22.88;;
42832;SDS011;28479;51.478;5.692;2022-08-19T06:13:44;51.50;;;22.38;;
42832;SDS011;28479;51.478;5.692;2022-08-19T06:16:12;52.00;;;23.30;;
42832;SDS011;28479;51.478;5.692;2022-08-19T06:18:45;43.78;;;22.85;;
42832;SDS011;28479;51.478;5.692;2022-08-19T06:21:11;48.10;;;23.95;;
42832;SDS011;28479;51.478;5.692;2022-08-19T06:23:36;49.65;;;22.35;;
42832;SDS011;28479;51.478;5.692;2022-08-19T06:26:02;48.00;;;23.33;;
42832;SDS011;28479;51.478;5.692;2022-08-19T06:28:27;56.65;;;21.70;;
42832;SDS011;28479;51.478;5.692;2022-08-19T06:30:53;58.83;;;24.65;;
42832;SDS011;28479;51.478;5.692;2022-08-19T06:33:19;57.63;;;24.20;;
42832;SDS011;28479;51.478;5.692;2022-08-19T06:35:44;57.00;;;24.95;;
42832;SDS011;28479;51.478;5.692;2022-08-19T06:38:10;62.17;;;24.38;;
42832;SDS011;28479;51.478;5.692;2022-08-19T06:40:36;62.65;;;24.92;;
42832;SDS011;28479;51.478;5.692;2022-08-19T06:43:03;52.90;;;24.00;;
42832;SDS011;28479;51.478;5.692;2022-08-19T06:45:28;56.63;;;23.00;;
42832;SDS011;28479;51.478;5.692;2022-08-19T06:47:55;49.92;;;23.88;;
42832;SDS011;28479;51.478;5.692;2022-08-19T06:50:21;62.25;;;24.63;;
42832;SDS011;28479;51.478;5.692;2022-08-19T06:52:47;49.70;;;24.63;;
42832;SDS011;28479;51.478;5.692;2022-08-19T06:55:14;54.17;;;24.30;;
42832;SDS011;28479;51.478;5.692;2022-08-19T06:57:40;47.00;;;22.42;;
42832;SDS011;28479;51.478;5.692;2022-08-19T07:00:07;45.40;;;22.50;;
42832;SDS011;28479;51.478;5.692;2022-08-19T07:02:37;55.97;;;21.52;;
42832;SDS011;28479;51.478;5.692;2022-08-19T07:05:03;49.63;;;22.00;;
42832;SDS011;28479;51.478;5.692;2022-08-19T07:07:30;50.15;;;23.00;;
42832;SDS011;28479;51.478;5.692;2022-08-19T07:09:56;45.97;;;21.08;;
42832;SDS011;28479;51.478;5.692;2022-08-19T07:12:22;47.35;;;21.02;;
42832;SDS011;28479;51.478;5.692;2022-08-19T07:14:47;43.80;;;21.15;;
42832;SDS011;28479;51.478;5.692;2022-08-19T07:17:15;53.42;;;21.75;;
42832;SDS011;28479;51.478;5.692;2022-08-19T07:19:41;46.90;;;20.80;;
42832;SDS011;28479;51.478;5.692;2022-08-19T07:22:08;51.00;;;21.13;;
42832;SDS011;28479;51.478;5.692;2022-08-19T07:24:34;38.78;;;19.63;;
42832;SDS011;28479;51.478;5.692;2022-08-19T07:27:02;41.92;;;18.75;;
42832;SDS011;28479;51.478;5.692;2022-08-19T07:29:31;36.45;;;18.92;;
42832;SDS011;28479;51.478;5.692;2022-08-19T07:31:58;44.28;;;18.98;;
42832;SDS011;28479;51.478;5.692;2022-08-19T07:34:26;38.60;;;17.55;;
42832;SDS011;28479;51.478;5.692;2022-08-19T07:36:53;41.67;;;18.10;;
42832;SDS011;28479;51.478;5.692;2022-08-19T07:39:23;33.80;;;17.73;;
42832;SDS011;28479;51.478;5.692;2022-08-19T07:41:50;38.22;;;17.75;;
42832;SDS011;28479;51.478;5.692;2022-08-19T07:44:16;41.67;;;17.55;;
42832;SDS011;28479;51.478;5.692;2022-08-19T07:46:46;34.92;;;17.38;;
42832;SDS011;28479;51.478;5.692;2022-08-19T07:49:14;39.28;;;17.38;;
42832;SDS011;28479;51.478;5.692;2022-08-19T07:51:49;43.53;;;18.23;;
42832;SDS011;28479;51.478;5.692;2022-08-19T07:54:21;37.60;;;16.52;;
42832;SDS011;28479;51.478;5.692;2022-08-19T07:56:48;34.53;;;17.00;;
42832;SDS011;28479;51.478;5.692;2022-08-19T07:59:15;34.28;;;15.90;;
42832;SDS011;28479;51.478;5.692;2022-08-19T08:01:42;34.60;;;16.50;;
42832;SDS011;28479;51.478;5.692;2022-08-19T08:04:09;44.63;;;16.75;;
42832;SDS011;28479;51.478;5.692;2022-08-19T08:06:53;42.13;;;16.50;;
42832;SDS011;28479;51.478;5.692;2022-08-19T08:09:39;35.00;;;15.70;;
42832;SDS011;28479;51.478;5.692;2022-08-19T08:14:42;33.05;;;15.18;;
42832;SDS011;28479;51.478;5.692;2022-08-19T08:17:13;33.97;;;14.93;;
42832;SDS011;28479;51.478;5.692;2022-08-19T08:19:40;31.42;;;15.93;;
42832;SDS011;28479;51.478;5.692;2022-08-19T08:22:07;29.38;;;14.90;;
42832;SDS011;28479;51.478;5.692;2022-08-19T08:24:53;36.25;;;15.43;;
42832;SDS011;28479;51.478;5.692;2022-08-19T08:27:19;29.40;;;12.90;;
42832;SDS011;28479;51.478;5.692;2022-08-19T08:29:45;25.65;;;12.68;;
42832;SDS011;28479;51.478;5.692;2022-08-19T08:32:10;24.85;;;13.73;;
42832;SDS011;28479;51.478;5.692;2022-08-19T08:34:36;24.42;;;12.30;;
42832;SDS011;28479;51.478;5.692;2022-08-19T08:37:02;28.65;;;13.05;;
42832;SDS011;28479;51.478;5.692;2022-08-19T08:39:28;39.30;;;22.20;;
42832;SDS011;28479;51.478;5.692;2022-08-19T08:44:38;58.38;;;24.58;;
42832;SDS011;28479;51.478;5.692;2022-08-19T08:47:16;35.67;;;14.93;;
42832;SDS011;28479;51.478;5.692;2022-08-19T08:49:48;25.55;;;13.93;;
42832;SDS011;28479;51.478;5.692;2022-08-19T08:52:22;24.50;;;12.90;;
42832;SDS011;28479;51.478;5.692;2022-08-19T08:57:35;23.90;;;12.80;;
42832;SDS011;28479;51.478;5.692;2022-08-19T09:00:18;20.00;;;12.32;;
42832;SDS011;28479;51.478;5.692;2022-08-19T09:02:48;19.98;;;11.55;;
42832;SDS011;28479;51.478;5.692;2022-08-19T09:05:14;43.15;;;21.02;;
42832;SDS011;28479;51.478;5.692;2022-08-19T09:10:37;36.15;;;20.23;;
42832;SDS011;28479;51.478;5.692;2022-08-19T09:16:06;39.75;;;22.83;;
42832;SDS011;28479;51.478;5.692;2022-08-19T09:18:38;23.63;;;12.50;;
42832;SDS011;28479;51.478;5.692;2022-08-19T09:21:06;23.35;;;11.95;;
42832;SDS011;28479;51.478;5.692;2022-08-19T09:23:33;19.75;;;12.75;;
42832;SDS011;28479;51.478;5.692;2022-08-19T09:26:00;16.33;;;11.20;;
42832;SDS011;28479;51.478;5.692;2022-08-19T09:28:26;17.80;;;11.05;;
42832;SDS011;28479;51.478;5.692;2022-08-19T09:30:54;21.95;;;11.68;;
42832;SDS011;28479;51.478;5.692;2022-08-19T09:33:22;16.42;;;10.88;;
42832;SDS011;28479;51.478;5.692;2022-08-19T09:35:48;24.33;;;11.57;;
42832;SDS011;28479;51.478;5.692;2022-08-19T09:38:13;18.73;;;10.05;;
42832;SDS011;28479;51.478;5.692;2022-08-19T09:40:39;20.23;;;10.48;;
42832;SDS011;28479;51.478;5.692;2022-08-19T09:43:05;22.67;;;12.77;;
42832;SDS011;28479;51.478;5.692;2022-08-19T09:45:31;18.40;;;11.43;;
42832;SDS011;28479;51.478;5.692;2022-08-19T09:47:57;19.48;;;13.98;;
42832;SDS011;28479;51.478;5.692;2022-08-19T09:50:23;20.42;;;12.90;;
42832;SDS011;28479;51.478;5.692;2022-08-19T09:52:49;22.77;;;13.15;;
42832;SDS011;28479;51.478;5.692;2022-08-19T09:55:17;20.17;;;12.07;;
42832;SDS011;28479;51.478;5.692;2022-08-19T09:57:42;19.00;;;11.85;;
42832;SDS011;28479;51.478;5.692;2022-08-19T10:00:08;20.92;;;12.10;;
42832;SDS011;28479;51.478;5.692;2022-08-19T10:02:35;18.00;;;11.18;;
42832;SDS011;28479;51.478;5.692;2022-08-19T10:05:00;21.13;;;10.88;;
42832;SDS011;28479;51.478;5.692;2022-08-19T10:07:45;17.15;;;11.43;;
42832;SDS011;28479;51.478;5.692;2022-08-19T10:10:11;19.00;;;11.80;;
42832;SDS011;28479;51.478;5.692;2022-08-19T10:12:37;19.08;;;11.00;;
42832;SDS011;28479;51.478;5.692;2022-08-19T10:15:03;14.52;;;10.55;;
42832;SDS011;28479;51.478;5.692;2022-08-19T10:17:31;18.02;;;10.77;;
42832;SDS011;28479;51.478;5.692;2022-08-19T10:19:59;18.25;;;11.75;;
42832;SDS011;28479;51.478;5.692;2022-08-19T10:22:27;23.80;;;12.20;;
42832;SDS011;28479;51.478;5.692;2022-08-19T10:24:53;20.52;;;11.82;;
42832;SDS011;28479;51.478;5.692;2022-08-19T10:27:18;19.20;;;10.45;;
42832;SDS011;28479;51.478;5.692;2022-08-19T10:29:44;18.35;;;10.82;;
42832;SDS011;28479;51.478;5.692;2022-08-19T10:32:09;20.40;;;11.00;;
42832;SDS011;28479;51.478;5.692;2022-08-19T10:34:36;23.67;;;11.75;;
42832;SDS011;28479;51.478;5.692;2022-08-19T10:37:03;18.75;;;11.43;;
42832;SDS011;28479;51.478;5.692;2022-08-19T10:39:33;23.75;;;12.02;;
42832;SDS011;28479;51.478;5.692;2022-08-19T10:42:04;22.52;;;10.30;;
42832;SDS011;28479;51.478;5.692;2022-08-19T10:44:31;23.15;;;10.60;;
42832;SDS011;28479;51.478;5.692;2022-08-19T10:46:58;30.40;;;11.32;;
42832;SDS011;28479;51.478;5.692;2022-08-19T10:49:24;18.60;;;11.85;;
42832;SDS011;28479;51.478;5.692;2022-08-19T10:51:49;19.10;;;10.27;;
42832;SDS011;28479;51.478;5.692;2022-08-19T10:54:34;17.38;;;10.52;;
42832;SDS011;28479;51.478;5.692;2022-08-19T10:57:18;16.80;;;10.55;;
42832;SDS011;28479;51.478;5.692;2022-08-19T10:59:44;20.60;;;11.05;;
42832;SDS011;28479;51.478;5.692;2022-08-19T11:02:10;24.63;;;11.15;;
42832;SDS011;28479;51.478;5.692;2022-08-19T11:04:37;18.90;;;10.38;;
42832;SDS011;28479;51.478;5.692;2022-08-19T11:07:05;21.20;;;10.50;;
42832;SDS011;28479;51.478;5.692;2022-08-19T11:09:31;19.25;;;9.77;;
42832;SDS011;28479;51.478;5.692;2022-08-19T11:12:03;18.30;;;10.70;;
42832;SDS011;28479;51.478;5.692;2022-08-19T11:14:29;16.63;;;9.73;;
42832;SDS011;28479;51.478;5.692;2022-08-19T11:16:57;18.27;;;8.65;;
42832;SDS011;28479;51.478;5.692;2022-08-19T11:19:23;20.33;;;9.35;;
42832;SDS011;28479;51.478;5.692;2022-08-19T11:21:49;19.98;;;8.38;;
42832;SDS011;28479;51.478;5.692;2022-08-19T11:24:18;14.55;;;7.93;;
42832;SDS011;28479;51.478;5.692;2022-08-19T11:26:45;18.48;;;9.60;;
42832;SDS011;28479;51.478;5.692;2022-08-19T11:29:14;13.77;;;8.00;;
42832;SDS011;28479;51.478;5.692;2022-08-19T11:31:42;17.77;;;9.50;;
42832;SDS011;28479;51.478;5.692;2022-08-19T11:34:11;19.95;;;9.32;;
42832;SDS011;28479;51.478;5.692;2022-08-19T11:36:41;17.67;;;8.80;;
42832;SDS011;28479;51.478;5.692;2022-08-19T11:39:09;19.00;;;8.05;;
42832;SDS011;28479;51.478;5.692;2022-08-19T11:41:36;13.95;;;7.22;;
42832;SDS011;28479;51.478;5.692;2022-08-19T11:44:01;14.75;;;8.35;;
42832;SDS011;28479;51.478;5.692;2022-08-19T11:46:29;20.25;;;7.20;;
42832;SDS011;28479;51.478;5.692;2022-08-19T11:48:56;17.15;;;8.68;;
42832;SDS011;28479;51.478;5.692;2022-08-19T11:51:23;13.10;;;8.02;;
42832;SDS011;28479;51.478;5.692;2022-08-19T11:53:50;17.13;;;7.80;;
42832;SDS011;28479;51.478;5.692;2022-08-19T11:56:16;15.15;;;8.55;;
42832;SDS011;28479;51.478;5.692;2022-08-19T11:58:42;17.05;;;8.82;;
42832;SDS011;28479;51.478;5.692;2022-08-19T12:01:08;13.57;;;8.82;;
42832;SDS011;28479;51.478;5.692;2022-08-19T12:03:37;15.63;;;8.80;;
42832;SDS011;28479;51.478;5.692;2022-08-19T12:06:04;17.00;;;8.73;;
42832;SDS011;28479;51.478;5.692;2022-08-19T12:08:31;19.05;;;10.10;;
42832;SDS011;28479;51.478;5.692;2022-08-19T12:10:56;20.73;;;10.32;;
42832;SDS011;28479;51.478;5.692;2022-08-19T12:13:22;19.38;;;10.70;;
42832;SDS011;28479;51.478;5.692;2022-08-19T12:15:49;16.75;;;9.10;;
42832;SDS011;28479;51.478;5.692;2022-08-19T12:18:16;22.40;;;9.93;;
42832;SDS011;28479;51.478;5.692;2022-08-19T12:20:42;18.23;;;10.13;;
42832;SDS011;28479;51.478;5.692;2022-08-19T12:23:08;19.42;;;10.60;;
42832;SDS011;28479;51.478;5.692;2022-08-19T12:25:35;22.58;;;10.95;;
42832;SDS011;28479;51.478;5.692;2022-08-19T12:28:01;22.50;;;10.90;;
42832;SDS011;28479;51.478;5.692;2022-08-19T12:30:27;18.55;;;10.70;;
42832;SDS011;28479;51.478;5.692;2022-08-19T12:32:53;20.55;;;10.40;;
42832;SDS011;28479;51.478;5.692;2022-08-19T12:35:19;21.73;;;10.43;;
42832;SDS011;28479;51.478;5.692;2022-08-19T12:37:45;21.60;;;11.07;;
42832;SDS011;28479;51.478;5.692;2022-08-19T12:40:12;19.33;;;9.88;;
42832;SDS011;28479;51.478;5.692;2022-08-19T12:42:39;18.45;;;10.25;;
42832;SDS011;28479;51.478;5.692;2022-08-19T12:45:11;19.63;;;11.13;;
42832;SDS011;28479;51.478;5.692;2022-08-19T12:47:38;19.90;;;9.85;;
42832;SDS011;28479;51.478;5.692;2022-08-19T12:50:05;21.63;;;11.18;;
42832;SDS011;28479;51.478;5.692;2022-08-19T12:52:34;19.50;;;10.77;;
42832;SDS011;28479;51.478;5.692;2022-08-19T12:55:06;15.90;;;10.02;;
42832;SDS011;28479;51.478;5.692;2022-08-19T12:57:32;17.42;;;10.40;;
42832;SDS011;28479;51.478;5.692;2022-08-19T13:00:13;19.25;;;10.93;;
42832;SDS011;28479;51.478;5.692;2022-08-19T13:02:42;29.45;;;10.80;;
42832;SDS011;28479;51.478;5.692;2022-08-19T13:05:11;18.20;;;10.10;;
42832;SDS011;28479;51.478;5.692;2022-08-19T13:07:40;20.40;;;11.68;;
42832;SDS011;28479;51.478;5.692;2022-08-19T13:10:09;20.67;;;10.82;;
42832;SDS011;28479;51.478;5.692;2022-08-19T13:12:36;20.52;;;10.05;;
42832;SDS011;28479;51.478;5.692;2022-08-19T13:15:03;25.55;;;11.23;;
42832;SDS011;28479;51.478;5.692;2022-08-19T13:17:29;21.38;;;10.85;;
42832;SDS011;28479;51.478;5.692;2022-08-19T13:19:54;18.00;;;9.45;;
42832;SDS011;28479;51.478;5.692;2022-08-19T13:22:20;18.98;;;10.57;;
42832;SDS011;28479;51.478;5.692;2022-08-19T13:24:45;18.77;;;10.00;;
42832;SDS011;28479;51.478;5.692;2022-08-19T13:27:11;16.65;;;9.45;;
42832;SDS011;28479;51.478;5.692;2022-08-19T13:29:37;16.20;;;9.77;;
42832;SDS011;28479;51.478;5.692;2022-08-19T13:32:24;16.75;;;8.93;;
42832;SDS011;28479;51.478;5.692;2022-08-19T13:35:08;22.10;;;9.68;;
42832;SDS011;28479;51.478;5.692;2022-08-19T13:37:34;17.30;;;9.13;;
42832;SDS011;28479;51.478;5.692;2022-08-19T13:40:10;16.38;;;9.38;;
42832;SDS011;28479;51.478;5.692;2022-08-19T13:42:47;17.17;;;9.95;;
42832;SDS011;28479;51.478;5.692;2022-08-19T13:45:14;17.92;;;9.35;;
42832;SDS011;28479;51.478;5.692;2022-08-19T13:47:45;19.10;;;8.35;;
42832;SDS011;28479;51.478;5.692;2022-08-19T13:50:12;15.52;;;8.38;;
42832;SDS011;28479;51.478;5.692;2022-08-19T13:52:39;14.70;;;8.55;;
42832;SDS011;28479;51.478;5.692;2022-08-19T13:55:05;16.00;;;8.45;;
42832;SDS011;28479;51.478;5.692;2022-08-19T13:57:32;12.73;;;6.85;;
42832;SDS011;28479;51.478;5.692;2022-08-19T13:59:58;14.82;;;7.03;;
42832;SDS011;28479;51.478;5.692;2022-08-19T14:02:24;11.02;;;6.65;;
42832;SDS011;28479;51.478;5.692;2022-08-19T14:04:52;10.10;;;6.05;;
42832;SDS011;28479;51.478;5.692;2022-08-19T14:07:18;9.82;;;5.65;;
42832;SDS011;28479;51.478;5.692;2022-08-19T14:09:44;8.55;;;4.68;;
42832;SDS011;28479;51.478;5.692;2022-08-19T14:12:09;9.85;;;5.32;;
42832;SDS011;28479;51.478;5.692;2022-08-19T14:14:36;7.85;;;4.25;;
42832;SDS011;28479;51.478;5.692;2022-08-19T14:17:07;7.40;;;4.47;;
42832;SDS011;28479;51.478;5.692;2022-08-19T14:19:34;11.02;;;5.20;;
42832;SDS011;28479;51.478;5.692;2022-08-19T14:21:59;8.05;;;4.78;;
42832;SDS011;28479;51.478;5.692;2022-08-19T14:24:25;8.93;;;5.20;;
42832;SDS011;28479;51.478;5.692;2022-08-19T14:26:52;10.23;;;5.60;;
42832;SDS011;28479;51.478;5.692;2022-08-19T14:29:17;10.63;;;5.15;;
42832;SDS011;28479;51.478;5.692;2022-08-19T14:31:43;8.23;;;4.55;;
42832;SDS011;28479;51.478;5.692;2022-08-19T14:34:09;7.82;;;5.00;;
42832;SDS011;28479;51.478;5.692;2022-08-19T14:36:35;14.00;;;5.93;;
42832;SDS011;28479;51.478;5.692;2022-08-19T14:39:02;11.52;;;5.32;;
42832;SDS011;28479;51.478;5.692;2022-08-19T14:41:28;8.55;;;4.78;;
42832;SDS011;28479;51.478;5.692;2022-08-19T14:43:55;6.15;;;4.05;;
42832;SDS011;28479;51.478;5.692;2022-08-19T14:46:22;8.90;;;5.10;;